Delray Beach, FL (33448)

4:20 PM EST on February 11, 2016 (GMT -0500)
SFWMD | | Change Station
CLOSE
Current Station
Personal Weather Station
Location: Delray Beach, FL
Elevation: 10 ft
Nearby Weather Stations

Elev 10 ft 26.50 °N, 80.22 °W | Updated 35 minutes ago

Clear
Clear
68 °F
Feels Like 68 °F
N
5
Wind Variable Wind from NE
Gusts 9.0 mph

Today
High -- | Low -- °F
--% Chance of Precip.
Yesterday
High -- | Low -- °F
Precip. -- in
Pressure 30.26 in
Visibility 10.0 miles
Clouds Few 13000 ft
Scattered Clouds 25000 ft
Dew Point 38 °F
Humidity 33%
Rainfall in
Snow Depth Not available.
6:59 AM 6:10 PM
Waxing Crescent, 14% visible
METAR KPMP 112053Z 03008KT 10SM FEW130 SCT250 19/04 A3026 RMK AO2 SLP246 T01890044 56014
Pressure 30.26 in
Visibility 10.0 miles
Clouds Few 13000 ft
Scattered Clouds 25000 ft
Dew Point 38 °F
Humidity 33%
Rainfall in
Snow Depth Not available.
6:59 AM 6:10 PM
Waxing Crescent, 14% visible
METAR KPMP 112053Z 03008KT 10SM FEW130 SCT250 19/04 A3026 RMK AO2 SLP246 T01890044 56014

10-Day Weather Forecast

Almanac

Astronomy

Feb. 11, 2016 Rise Set
Actual Time
Civil Twilight
Nautical Twilight
Astronomical Twilight
Moon
Length of Visible Light
Length of Day
Tomorrow will be .
, % of the Moon is Illuminated

Today's Extremes

State Highs State Lows

Community

WunderPhotos

Upload Photos

1,892,159 photos uploaded!

WunderBlog® & News

Nearby

Air Quality

  Air Quality AQ Index Pollutant
Not available.

Snow Depth

Station Depth Elevation

Earthquake Activity

City Distance Mag. Time & Date
Minimum magnitude displayed is 2.5.

Coastal Water Temperatures

Place Temperature

Stations

Nearby Weather Stations

Station Location Temp. Windchill Dew Point Humidity Wind Precip. Elev Updated Type
                   

Watches & Warnings

There are currently no watches in effect.